Montrose, Minnesota
Current Conditions -  °F | °C
As of 1:35 PM on Friday 24 Oct 2014 (Local Time) from KCFE Reporting Station
Clear Clear  
Wind Chill: 64°   Ceiling: Unl
Heat Index: 64°   Visibility: 10mi
Dew Point: 51°   Wind: 5mph
Humidity: 64%   Direction: 210°SSW
Pressure: 29.84"   Gusts: NA
Location:  45.06°N, 93.91°W
Report Text: KCFE 241835Z AUTO 21004KT 10SM CLR 18/11 A2984 RMK AO2 T01760106
Loading
Personal Weather Stations






























Interactive Weather Map New forecast layout! Learn more

10-Day Weather Forecast

Advertisements
Track Severe Weather on mobile